LNI981 WAEE-WAAA
Flight info
| Callsign | LNI981 |
|---|---|
| Flight time | N/A |
| Altitude | 34000 |
| Route | TELES W36 ENTEG W32 VENRU |
| Aircraft | B739/M-SDE2E3FGHIRWXY/LB1 |
Departure
| Time | 2026-04-21 12:55 |
|---|---|
| Airport | Sultan Babullah Airport (WAEE) |
Arrival
| Time | N/A |
|---|---|
| Airport | Sultan Hasanuddin International Airport (WAAA) |
| Time | Latitude | Longitude | Altitude | Speed | Heading |
|---|---|---|---|---|---|
| 2026-04-21 12:18 | 0.83366 | 127.37734 | 81 ft | 0 kts | 231° |
| 2026-04-21 12:44 | 0.83366 | 127.37735 | 84 ft | 1 kts | 231° |
| 2026-04-21 12:45 | 0.83381 | 127.37755 | 84 ft | 4 kts | 244° |
| 2026-04-21 12:45 | 0.83388 | 127.37779 | 86 ft | 4 kts | 274° |
| 2026-04-21 12:45 | 0.83384 | 127.37802 | 84 ft | 4 kts | 290° |
| 2026-04-21 12:45 | 0.83371 | 127.37824 | 88 ft | 4 kts | 317° |
| 2026-04-21 12:46 | 0.83350 | 127.37841 | 88 ft | 4 kts | 327° |
| 2026-04-21 12:46 | 0.83339 | 127.37848 | 88 ft | 0 kts | 322° |
| 2026-04-21 12:49 | 0.83340 | 127.37847 | 84 ft | 1 kts | 322° |
| 2026-04-21 12:49 | 0.83367 | 127.37827 | 85 ft | 9 kts | 323° |
| 2026-04-21 12:50 | 0.83395 | 127.37818 | 84 ft | 1 kts | 10° |
| 2026-04-21 12:50 | 0.83401 | 127.37821 | 88 ft | 2 kts | 22° |
| 2026-04-21 12:50 | 0.83435 | 127.37853 | 85 ft | 11 kts | 52° |
| 2026-04-21 12:50 | 0.83417 | 127.37921 | 88 ft | 11 kts | 141° |
| 2026-04-21 12:51 | 0.83339 | 127.37982 | 87 ft | 18 kts | 141° |
| 2026-04-21 12:51 | 0.83220 | 127.38077 | 81 ft | 26 kts | 141° |
| 2026-04-21 12:51 | 0.83074 | 127.38194 | 84 ft | 27 kts | 141° |
| 2026-04-21 12:51 | 0.82930 | 127.38308 | 75 ft | 27 kts | 141° |
| 2026-04-21 12:52 | 0.82776 | 127.38432 | 78 ft | 28 kts | 141° |
| 2026-04-21 12:52 | 0.82628 | 127.38551 | 74 ft | 26 kts | 141° |
| 2026-04-21 12:52 | 0.82492 | 127.38666 | 76 ft | 25 kts | 137° |
| 2026-04-21 12:52 | 0.82384 | 127.38777 | 77 ft | 13 kts | 127° |
| 2026-04-21 12:53 | 0.82360 | 127.38761 | 69 ft | 5 kts | 323° |
| 2026-04-21 12:53 | 0.82377 | 127.38750 | 76 ft | 0 kts | 321° |
| 2026-04-21 12:54 | 0.82517 | 127.38641 | 77 ft | 66 kts | 321° |
| 2026-04-21 12:54 | 0.83087 | 127.38184 | 84 ft | 141 kts | 321° |
| 2026-04-21 12:54 | 0.83981 | 127.37451 | 285 ft | 181 kts | 320° |
| 2026-04-21 12:55 | 0.84988 | 127.36667 | 988 ft | 188 kts | 334° |
| 2026-04-21 12:55 | 0.86265 | 127.36386 | 1667 ft | 194 kts | 356° |
| 2026-04-21 12:55 | 0.87672 | 127.36286 | 2082 ft | 212 kts | 357° |
| 2026-04-21 12:55 | 0.89225 | 127.36190 | 2355 ft | 234 kts | 358° |
| 2026-04-21 12:56 | 0.90882 | 127.36117 | 2851 ft | 244 kts | 359° |
| 2026-04-21 12:56 | 0.92592 | 127.36039 | 3562 ft | 247 kts | 359° |
| 2026-04-21 12:56 | 0.94313 | 127.35930 | 4386 ft | 249 kts | 358° |
| 2026-04-21 12:56 | 0.96049 | 127.35800 | 5140 ft | 252 kts | 358° |
| 2026-04-21 12:57 | 0.97806 | 127.35655 | 5920 ft | 255 kts | 354° |
| 2026-04-21 12:57 | 0.99476 | 127.35036 | 6596 ft | 263 kts | 322° |
| 2026-04-21 12:57 | 1.00602 | 127.33570 | 7111 ft | 279 kts | 291° |
| 2026-04-21 12:57 | 1.00858 | 127.31608 | 7561 ft | 292 kts | 269° |
| 2026-04-21 12:58 | 1.00802 | 127.29554 | 8252 ft | 298 kts | 268° |
| 2026-04-21 12:58 | 1.00742 | 127.27479 | 9008 ft | 300 kts | 269° |
| 2026-04-21 12:58 | 1.00695 | 127.25376 | 9731 ft | 304 kts | 269° |
| 2026-04-21 12:58 | 1.00653 | 127.23279 | 10330 ft | 310 kts | 266° |
| 2026-04-21 12:59 | 1.00038 | 127.21157 | 10500 ft | 331 kts | 237° |
| 2026-04-21 12:59 | 0.98391 | 127.19512 | 10811 ft | 341 kts | 207° |
| 2026-04-21 12:59 | 0.96178 | 127.18672 | 11370 ft | 343 kts | 196° |
| 2026-04-21 12:59 | 0.93878 | 127.17956 | 11971 ft | 347 kts | 196° |
| 2026-04-21 13:00 | 0.91558 | 127.17229 | 12587 ft | 351 kts | 196° |
| 2026-04-21 13:00 | 0.89217 | 127.16485 | 13212 ft | 354 kts | 196° |
| 2026-04-21 13:00 | 0.86861 | 127.15723 | 13802 ft | 358 kts | 196° |
| 2026-04-21 13:00 | 0.84482 | 127.14945 | 14338 ft | 361 kts | 197° |
| 2026-04-21 13:01 | 0.82088 | 127.14153 | 14879 ft | 363 kts | 197° |
| 2026-04-21 13:01 | 0.79679 | 127.13349 | 15420 ft | 367 kts | 197° |
| 2026-04-21 13:01 | 0.77249 | 127.12538 | 15943 ft | 370 kts | 197° |
| 2026-04-21 13:01 | 0.74796 | 127.11721 | 16462 ft | 373 kts | 198° |
| 2026-04-21 13:02 | 0.72359 | 127.10908 | 16983 ft | 376 kts | 198° |
| 2026-04-21 13:02 | 0.69836 | 127.10067 | 17493 ft | 379 kts | 198° |
| 2026-04-21 13:02 | 0.64823 | 127.08394 | 18446 ft | 385 kts | 198° |
| 2026-04-21 13:03 | 0.62279 | 127.07544 | 18868 ft | 387 kts | 198° |
| 2026-04-21 13:03 | 0.59711 | 127.06686 | 19287 ft | 390 kts | 198° |
| 2026-04-21 13:03 | 0.57135 | 127.05825 | 19712 ft | 392 kts | 197° |
| 2026-04-21 13:03 | 0.54540 | 127.04959 | 20141 ft | 394 kts | 197° |
| 2026-04-21 13:04 | 0.51929 | 127.04088 | 20563 ft | 397 kts | 197° |
| 2026-04-21 13:04 | 0.49298 | 127.03210 | 20995 ft | 399 kts | 197° |
| 2026-04-21 13:04 | 0.46657 | 127.02326 | 21405 ft | 401 kts | 197° |
| 2026-04-21 13:04 | 0.43999 | 127.01439 | 21802 ft | 404 kts | 197° |
| 2026-04-21 13:05 | 0.41327 | 127.00548 | 22186 ft | 406 kts | 197° |
| 2026-04-21 13:05 | 0.38668 | 126.99662 | 22563 ft | 408 kts | 197° |
| 2026-04-21 13:05 | 0.35970 | 126.98761 | 22930 ft | 410 kts | 197° |
| 2026-04-21 13:05 | 0.33250 | 126.97854 | 23271 ft | 413 kts | 197° |
| 2026-04-21 13:06 | 0.30514 | 126.96940 | 23599 ft | 416 kts | 197° |
| 2026-04-21 13:06 | 0.27761 | 126.96020 | 23916 ft | 417 kts | 197° |
| 2026-04-21 13:06 | 0.24994 | 126.95099 | 24223 ft | 419 kts | 197° |
| 2026-04-21 13:06 | 0.22224 | 126.94175 | 24528 ft | 421 kts | 197° |
| 2026-04-21 13:07 | 0.19445 | 126.93248 | 24841 ft | 422 kts | 197° |
| 2026-04-21 13:07 | 0.16650 | 126.92315 | 25136 ft | 424 kts | 197° |
| 2026-04-21 13:07 | 0.13846 | 126.91378 | 25427 ft | 426 kts | 197° |
| 2026-04-21 13:07 | 0.11029 | 126.90438 | 25727 ft | 427 kts | 197° |
| 2026-04-21 13:08 | 0.09164 | 126.89815 | 25925 ft | 428 kts | 197° |
| 2026-04-21 13:08 | 0.05401 | 126.88559 | 26319 ft | 430 kts | 197° |
| 2026-04-21 13:08 | 0.02555 | 126.87608 | 26663 ft | 430 kts | 197° |
| 2026-04-21 13:08 | -0.00262 | 126.86667 | 27080 ft | 429 kts | 197° |
| 2026-04-21 13:09 | -0.03101 | 126.85719 | 27517 ft | 427 kts | 197° |
| 2026-04-21 13:09 | -0.05915 | 126.84780 | 27915 ft | 426 kts | 197° |
| 2026-04-21 13:09 | -0.08727 | 126.83842 | 28328 ft | 426 kts | 197° |
| 2026-04-21 13:09 | -0.11532 | 126.82909 | 28765 ft | 424 kts | 197° |
| 2026-04-21 13:10 | -0.14330 | 126.81973 | 29161 ft | 425 kts | 197° |
| 2026-04-21 13:10 | -0.17158 | 126.81029 | 29243 ft | 433 kts | 197° |
| 2026-04-21 13:10 | -0.21979 | 126.79417 | 29379 ft | 444 kts | 197° |
| 2026-04-21 13:11 | -0.25926 | 126.78100 | 29610 ft | 450 kts | 197° |
| 2026-04-21 13:11 | -0.28897 | 126.77109 | 29926 ft | 450 kts | 197° |
| 2026-04-21 13:11 | -0.30859 | 126.76454 | 30176 ft | 448 kts | 197° |
| 2026-04-21 13:11 | -0.33811 | 126.75469 | 30539 ft | 446 kts | 197° |
| 2026-04-21 13:12 | -0.36756 | 126.74485 | 30855 ft | 446 kts | 197° |
| 2026-04-21 13:12 | -0.39692 | 126.73506 | 31201 ft | 444 kts | 197° |
| 2026-04-21 13:12 | -0.42625 | 126.72527 | 31555 ft | 443 kts | 197° |
| 2026-04-21 13:12 | -0.45546 | 126.71552 | 31885 ft | 443 kts | 197° |
| 2026-04-21 13:13 | -0.48458 | 126.70580 | 32217 ft | 442 kts | 197° |
| 2026-04-21 13:13 | -0.51390 | 126.69604 | 32574 ft | 441 kts | 197° |
| 2026-04-21 13:13 | -0.54302 | 126.68633 | 32894 ft | 441 kts | 197° |
| 2026-04-21 13:13 | -0.57219 | 126.67659 | 33137 ft | 442 kts | 197° |
| 2026-04-21 13:14 | -0.60105 | 126.66695 | 33364 ft | 444 kts | 197° |
| 2026-04-21 13:14 | -0.63035 | 126.65717 | 33631 ft | 444 kts | 197° |
| 2026-04-21 13:14 | -0.65967 | 126.64739 | 33913 ft | 444 kts | 197° |
| 2026-04-21 13:14 | -0.68919 | 126.63754 | 33885 ft | 449 kts | 197° |
| 2026-04-21 13:15 | -0.74892 | 126.61762 | 33909 ft | 456 kts | 197° |
| 2026-04-21 13:15 | -0.80952 | 126.59742 | 33913 ft | 462 kts | 197° |
| 2026-04-21 13:16 | -0.86764 | 126.56983 | 33905 ft | 472 kts | 221° |
| 2026-04-21 13:16 | -0.88893 | 126.54478 | 33894 ft | 476 kts | 239° |
| 2026-04-21 13:16 | -0.90272 | 126.51465 | 33913 ft | 480 kts | 253° |
| 2026-04-21 13:17 | -0.90785 | 126.48173 | 33907 ft | 482 kts | 269° |
| 2026-04-21 13:17 | -0.90785 | 126.44821 | 33904 ft | 484 kts | 271° |
| 2026-04-21 13:17 | -0.90656 | 126.38075 | 33899 ft | 486 kts | 271° |
| 2026-04-21 13:18 | -0.90539 | 126.31312 | 33897 ft | 487 kts | 271° |
| 2026-04-21 13:18 | -0.90476 | 126.24549 | 33893 ft | 485 kts | 270° |
| 2026-04-21 13:19 | -0.90440 | 126.17830 | 33892 ft | 483 kts | 270° |
| 2026-04-21 13:19 | -0.90411 | 126.11127 | 33896 ft | 481 kts | 270° |
| 2026-04-21 13:20 | -0.90379 | 126.04489 | 33899 ft | 479 kts | 270° |
| 2026-04-21 13:20 | -0.90344 | 125.97842 | 33900 ft | 477 kts | 270° |
| 2026-04-21 13:21 | -0.90310 | 125.91212 | 33905 ft | 476 kts | 270° |
| 2026-04-21 13:21 | -0.90274 | 125.84589 | 33901 ft | 476 kts | 270° |
| 2026-04-21 13:22 | -0.90237 | 125.77977 | 33902 ft | 476 kts | 270° |
| 2026-04-21 13:22 | -0.90199 | 125.71342 | 33902 ft | 477 kts | 270° |
| 2026-04-21 13:23 | -0.90166 | 125.64745 | 33897 ft | 478 kts | 270° |
| 2026-04-21 13:23 | -0.90131 | 125.58087 | 33901 ft | 479 kts | 270° |
| 2026-04-21 13:24 | -0.90095 | 125.51420 | 33899 ft | 480 kts | 270° |
| 2026-04-21 13:24 | -0.90059 | 125.44742 | 33900 ft | 480 kts | 270° |
| 2026-04-21 13:25 | -0.90018 | 125.38058 | 33896 ft | 480 kts | 270° |
| 2026-04-21 13:25 | -0.89982 | 125.31384 | 33898 ft | 480 kts | 270° |
| 2026-04-21 13:26 | -0.89949 | 125.24731 | 33897 ft | 478 kts | 270° |
| 2026-04-21 13:26 | -0.89910 | 125.18094 | 33896 ft | 477 kts | 270° |
| 2026-04-21 13:27 | -0.89874 | 125.11479 | 33898 ft | 476 kts | 270° |
| 2026-04-21 13:27 | -0.89841 | 125.04916 | 33899 ft | 474 kts | 270° |
| 2026-04-21 13:28 | -0.89807 | 124.98328 | 33898 ft | 474 kts | 270° |
| 2026-04-21 13:28 | -0.89770 | 124.91751 | 33894 ft | 473 kts | 270° |
| 2026-04-21 13:29 | -0.89732 | 124.85183 | 33902 ft | 473 kts | 270° |
| 2026-04-21 13:29 | -0.89694 | 124.78618 | 33895 ft | 473 kts | 270° |
| 2026-04-21 13:30 | -0.89658 | 124.72049 | 33904 ft | 473 kts | 270° |
| 2026-04-21 13:30 | -0.89622 | 124.65468 | 33899 ft | 473 kts | 270° |
| 2026-04-21 13:31 | -0.90218 | 124.58943 | 33909 ft | 472 kts | 256° |
| 2026-04-21 13:31 | -0.92139 | 124.52714 | 33906 ft | 472 kts | 250° |
| 2026-04-21 13:32 | -0.94383 | 124.46539 | 33896 ft | 473 kts | 249° |
| 2026-04-21 13:32 | -0.96576 | 124.40339 | 33899 ft | 473 kts | 250° |
| 2026-04-21 13:33 | -0.98700 | 124.34102 | 33896 ft | 473 kts | 251° |
| 2026-04-21 13:33 | -1.00797 | 124.27870 | 33889 ft | 473 kts | 251° |
| 2026-04-21 13:34 | -1.02878 | 124.21677 | 33902 ft | 472 kts | 251° |
| 2026-04-21 13:34 | -1.04968 | 124.15462 | 33900 ft | 471 kts | 251° |
| 2026-04-21 13:35 | -1.07055 | 124.09260 | 33895 ft | 470 kts | 251° |
| 2026-04-21 13:35 | -1.09135 | 124.03078 | 33900 ft | 469 kts | 251° |
| 2026-04-21 13:36 | -1.11220 | 123.96897 | 33903 ft | 468 kts | 251° |
| 2026-04-21 13:36 | -1.13296 | 123.90721 | 33903 ft | 470 kts | 251° |
| 2026-04-21 13:37 | -1.15387 | 123.84500 | 33906 ft | 474 kts | 251° |
| 2026-04-21 13:37 | -1.17498 | 123.78219 | 33909 ft | 477 kts | 251° |
| 2026-04-21 13:38 | -1.19621 | 123.71907 | 33907 ft | 480 kts | 251° |
| 2026-04-21 13:38 | -1.21742 | 123.65604 | 33904 ft | 483 kts | 251° |
| 2026-04-21 13:39 | -1.23887 | 123.59228 | 33918 ft | 484 kts | 251° |
| 2026-04-21 13:39 | -1.26034 | 123.52843 | 33909 ft | 485 kts | 251° |
| 2026-04-21 13:40 | -1.28188 | 123.46443 | 33907 ft | 485 kts | 251° |
| 2026-04-21 13:40 | -1.30340 | 123.40051 | 33908 ft | 485 kts | 251° |
| 2026-04-21 13:41 | -1.32486 | 123.33667 | 33916 ft | 484 kts | 251° |
| 2026-04-21 13:41 | -1.34617 | 123.27336 | 33910 ft | 484 kts | 251° |
| 2026-04-21 13:42 | -1.36758 | 123.20971 | 33915 ft | 483 kts | 251° |
| 2026-04-21 13:42 | -1.38895 | 123.14614 | 33911 ft | 482 kts | 251° |
| 2026-04-21 13:43 | -1.41005 | 123.08246 | 33920 ft | 482 kts | 252° |
| 2026-04-21 13:43 | -1.43106 | 123.01879 | 33916 ft | 482 kts | 252° |
| 2026-04-21 13:44 | -1.45217 | 122.95511 | 33928 ft | 483 kts | 251° |
| 2026-04-21 13:44 | -1.47334 | 122.89125 | 33917 ft | 483 kts | 251° |
| 2026-04-21 13:45 | -1.49449 | 122.82746 | 33915 ft | 483 kts | 251° |
| 2026-04-21 13:45 | -1.51551 | 122.76406 | 33917 ft | 483 kts | 251° |
| 2026-04-21 13:46 | -1.53667 | 122.70028 | 33919 ft | 483 kts | 251° |
| 2026-04-21 13:46 | -1.55783 | 122.63648 | 33912 ft | 484 kts | 251° |
| 2026-04-21 13:47 | -1.57899 | 122.57267 | 33912 ft | 484 kts | 251° |
| 2026-04-21 13:47 | -1.60015 | 122.50883 | 33912 ft | 483 kts | 251° |
| 2026-04-21 13:48 | -1.62132 | 122.44505 | 33914 ft | 484 kts | 252° |
| 2026-04-21 13:48 | -1.64258 | 122.38125 | 33912 ft | 484 kts | 249° |
| 2026-04-21 13:49 | -1.67521 | 122.32282 | 33923 ft | 482 kts | 232° |
| 2026-04-21 13:49 | -1.72287 | 122.27601 | 33935 ft | 481 kts | 220° |
| 2026-04-21 13:50 | -1.77406 | 122.23280 | 33920 ft | 482 kts | 220° |
| 2026-04-21 13:50 | -1.82511 | 122.18940 | 33915 ft | 482 kts | 221° |
| 2026-04-21 13:51 | -1.87586 | 122.14572 | 33914 ft | 482 kts | 221° |
| 2026-04-21 13:51 | -1.92652 | 122.10193 | 33914 ft | 480 kts | 221° |
| 2026-04-21 13:52 | -1.97683 | 122.05846 | 33915 ft | 481 kts | 221° |
| 2026-04-21 13:52 | -2.02748 | 122.01462 | 33928 ft | 482 kts | 220° |
| 2026-04-21 13:53 | -2.07835 | 121.97064 | 33927 ft | 484 kts | 221° |
| 2026-04-21 13:53 | -2.12929 | 121.92663 | 33920 ft | 484 kts | 221° |
| 2026-04-21 13:54 | -2.18029 | 121.88256 | 33920 ft | 485 kts | 221° |
| 2026-04-21 13:54 | -2.22307 | 121.84557 | 33939 ft | 484 kts | 221° |
| 2026-04-21 13:55 | -2.27373 | 121.80183 | 33947 ft | 484 kts | 221° |
| 2026-04-21 13:55 | -2.32477 | 121.75770 | 33942 ft | 484 kts | 220° |
| 2026-04-21 13:56 | -2.37574 | 121.71363 | 33949 ft | 484 kts | 220° |
| 2026-04-21 13:56 | -2.42486 | 121.67125 | 33946 ft | 484 kts | 220° |
| 2026-04-21 13:57 | -2.47672 | 121.62834 | 33956 ft | 484 kts | 219° |
| 2026-04-21 13:57 | -2.52899 | 121.58590 | 33959 ft | 483 kts | 218° |
| 2026-04-21 13:58 | -2.58100 | 121.54352 | 33962 ft | 482 kts | 219° |
| 2026-04-21 13:58 | -2.63260 | 121.50125 | 33965 ft | 482 kts | 219° |
| 2026-04-21 13:59 | -2.68439 | 121.45870 | 33952 ft | 481 kts | 219° |
| 2026-04-21 13:59 | -2.73609 | 121.41631 | 33956 ft | 480 kts | 219° |
| 2026-04-21 14:00 | -2.78779 | 121.37389 | 33947 ft | 480 kts | 219° |
| 2026-04-21 14:00 | -2.83948 | 121.33152 | 33946 ft | 480 kts | 218° |
| 2026-04-21 14:01 | -2.89085 | 121.28939 | 33944 ft | 480 kts | 218° |
| 2026-04-21 14:01 | -2.94251 | 121.24700 | 33946 ft | 480 kts | 219° |
| 2026-04-21 14:02 | -2.99412 | 121.20467 | 33945 ft | 479 kts | 219° |
| 2026-04-21 14:03 | -3.07153 | 121.14125 | 33942 ft | 478 kts | 217° |
| 2026-04-21 14:03 | -3.10008 | 121.12466 | 33913 ft | 474 kts | 198° |
| 2026-04-21 14:03 | -3.13190 | 121.11653 | 33909 ft | 471 kts | 185° |
| 2026-04-21 14:04 | -3.19733 | 121.11523 | 33941 ft | 470 kts | 179° |
| 2026-04-21 14:04 | -3.26273 | 121.11490 | 33949 ft | 471 kts | 180° |
| 2026-04-21 14:05 | -3.32786 | 121.11372 | 33954 ft | 472 kts | 181° |
| 2026-04-21 14:05 | -3.39233 | 121.10159 | 33966 ft | 475 kts | 199° |
| 2026-04-21 14:06 | -3.45143 | 121.07160 | 33947 ft | 479 kts | 210° |
| 2026-04-21 14:06 | -3.50847 | 121.03695 | 33940 ft | 480 kts | 211° |
| 2026-04-21 14:07 | -3.56573 | 121.00233 | 33935 ft | 481 kts | 210° |
| 2026-04-21 14:07 | -3.62337 | 120.96802 | 33923 ft | 481 kts | 210° |
| 2026-04-21 14:08 | -3.68110 | 120.93390 | 33905 ft | 481 kts | 209° |
| 2026-04-21 14:08 | -3.73880 | 120.89975 | 33912 ft | 482 kts | 209° |
| 2026-04-21 14:09 | -3.79616 | 120.86586 | 33912 ft | 481 kts | 210° |
| 2026-04-21 14:09 | -3.85376 | 120.83180 | 33904 ft | 481 kts | 210° |
| 2026-04-21 14:10 | -3.91135 | 120.79775 | 33900 ft | 481 kts | 210° |
| 2026-04-21 14:10 | -3.96898 | 120.76363 | 33897 ft | 480 kts | 209° |
| 2026-04-21 14:11 | -4.02660 | 120.72955 | 33897 ft | 480 kts | 209° |
| 2026-04-21 14:11 | -4.08423 | 120.69541 | 33891 ft | 481 kts | 209° |
| 2026-04-21 14:12 | -4.14194 | 120.66126 | 33892 ft | 481 kts | 209° |
| 2026-04-21 14:12 | -4.19918 | 120.62735 | 33887 ft | 481 kts | 209° |
| 2026-04-21 14:12 | -4.22814 | 120.61020 | 33533 ft | 486 kts | 209° |
| 2026-04-21 14:13 | -4.25743 | 120.59291 | 33107 ft | 487 kts | 209° |
| 2026-04-21 14:13 | -4.28653 | 120.57566 | 32477 ft | 483 kts | 209° |
| 2026-04-21 14:13 | -4.31531 | 120.55857 | 31905 ft | 478 kts | 210° |
| 2026-04-21 14:13 | -4.34374 | 120.54169 | 31335 ft | 472 kts | 210° |
| 2026-04-21 14:14 | -4.37190 | 120.52497 | 30765 ft | 468 kts | 210° |
| 2026-04-21 14:14 | -4.39984 | 120.50841 | 30200 ft | 466 kts | 210° |
| 2026-04-21 14:14 | -4.42764 | 120.49193 | 29585 ft | 463 kts | 210° |
| 2026-04-21 14:14 | -4.45535 | 120.47552 | 28940 ft | 463 kts | 210° |
| 2026-04-21 14:15 | -4.48322 | 120.45900 | 28329 ft | 468 kts | 210° |
| 2026-04-21 14:15 | -4.51139 | 120.44232 | 27742 ft | 474 kts | 210° |
| 2026-04-21 14:15 | -4.53981 | 120.42547 | 27152 ft | 472 kts | 210° |
| 2026-04-21 14:15 | -4.56795 | 120.40877 | 26575 ft | 468 kts | 210° |
| 2026-04-21 14:16 | -4.59578 | 120.39226 | 26014 ft | 463 kts | 210° |
| 2026-04-21 14:16 | -4.62334 | 120.37589 | 25459 ft | 458 kts | 210° |
| 2026-04-21 14:16 | -4.65063 | 120.35970 | 24916 ft | 453 kts | 210° |
| 2026-04-21 14:16 | -4.67768 | 120.34367 | 24389 ft | 449 kts | 210° |
| 2026-04-21 14:17 | -4.70445 | 120.32779 | 23861 ft | 445 kts | 210° |
| 2026-04-21 14:17 | -4.73100 | 120.31205 | 23322 ft | 442 kts | 210° |
| 2026-04-21 14:17 | -4.75740 | 120.29639 | 22717 ft | 438 kts | 210° |
| 2026-04-21 14:17 | -4.78323 | 120.28107 | 22121 ft | 436 kts | 210° |
| 2026-04-21 14:18 | -4.80921 | 120.26564 | 21537 ft | 433 kts | 210° |
| 2026-04-21 14:18 | -4.83507 | 120.25030 | 20959 ft | 430 kts | 210° |
| 2026-04-21 14:18 | -4.86073 | 120.23506 | 20394 ft | 427 kts | 210° |
| 2026-04-21 14:18 | -4.88619 | 120.21996 | 19852 ft | 423 kts | 210° |
| 2026-04-21 14:19 | -4.91144 | 120.20498 | 19327 ft | 419 kts | 210° |
| 2026-04-21 14:19 | -4.93638 | 120.19017 | 18814 ft | 414 kts | 210° |
| 2026-04-21 14:19 | -4.96107 | 120.17552 | 18297 ft | 411 kts | 210° |
| 2026-04-21 14:19 | -4.98554 | 120.16100 | 17752 ft | 407 kts | 210° |
| 2026-04-21 14:20 | -5.00982 | 120.14658 | 17174 ft | 403 kts | 210° |
| 2026-04-21 14:20 | -5.03355 | 120.13250 | 16621 ft | 400 kts | 210° |
| 2026-04-21 14:20 | -5.05741 | 120.11835 | 16072 ft | 396 kts | 210° |
| 2026-04-21 14:20 | -5.08138 | 120.10413 | 15548 ft | 392 kts | 209° |
| 2026-04-21 14:21 | -5.10475 | 120.09027 | 15095 ft | 387 kts | 209° |
| 2026-04-21 14:21 | -5.12720 | 120.07689 | 14978 ft | 372 kts | 209° |
| 2026-04-21 14:21 | -5.14893 | 120.06396 | 14920 ft | 353 kts | 210° |
| 2026-04-21 14:21 | -5.16753 | 120.04911 | 14906 ft | 334 kts | 231° |
| 2026-04-21 14:22 | -5.17876 | 120.02949 | 14827 ft | 318 kts | 250° |
| 2026-04-21 14:22 | -5.18363 | 120.00827 | 14589 ft | 310 kts | 265° |
| 2026-04-21 14:22 | -5.18471 | 119.98693 | 14314 ft | 303 kts | 269° |
| 2026-04-21 14:22 | -5.18514 | 119.96591 | 14039 ft | 302 kts | 270° |
| 2026-04-21 14:23 | -5.18554 | 119.94482 | 13737 ft | 304 kts | 269° |
| 2026-04-21 14:23 | -5.18604 | 119.92352 | 13392 ft | 307 kts | 269° |
| 2026-04-21 14:23 | -5.18665 | 119.90208 | 13034 ft | 308 kts | 269° |
| 2026-04-21 14:23 | -5.18732 | 119.88064 | 12667 ft | 308 kts | 269° |
| 2026-04-21 14:24 | -5.18801 | 119.85916 | 12298 ft | 307 kts | 269° |
| 2026-04-21 14:24 | -5.18869 | 119.83789 | 11926 ft | 303 kts | 269° |
| 2026-04-21 14:24 | -5.18981 | 119.81705 | 11535 ft | 297 kts | 258° |
| 2026-04-21 14:24 | -5.19856 | 119.79874 | 11179 ft | 290 kts | 231° |
| 2026-04-21 14:25 | -5.21153 | 119.78358 | 10845 ft | 285 kts | 227° |
| 2026-04-21 14:25 | -5.22501 | 119.76892 | 10494 ft | 286 kts | 226° |
| 2026-04-21 14:25 | -5.23861 | 119.75432 | 10158 ft | 286 kts | 226° |
| 2026-04-21 14:25 | -5.25219 | 119.73969 | 9820 ft | 287 kts | 226° |
| 2026-04-21 14:26 | -5.26484 | 119.72596 | 9473 ft | 288 kts | 227° |